Tiempo atmosférico en la estación meteorológica de Alcala de Henares, Madrid (605 m.)



Fecha
DESCASC
Temp. máxima en grados centígrados (hora)
DESCASC
Temp. mínima en grados centígrados (hora)
DESCASC
Temp. media en grados centígrados
DESCASC
Racha de viento máxima en m/sg (hora)
DESCASC
Velocidad máxima media en intervalos de 10 minutos(hora)
DESCASC
Precipitaciones diarias en mm
DESCASC
Precipitaciones de 00:00 a 06:00 en mm
DESCASC
Precipitaciones de 06:00 a 12:00 en mm
DESCASC
Precipitaciones de 12:00 a 18:00 en mm
DESCASC
Precipitaciones de 18:00 a 24:00 en mm
DESCASC
05-04-2020 20.3 (17:10) 8.8 (08:50) 14.5 15.28 (00:20) 8.89 (00:20) 0 0 0 0 0
04-04-2020 18.8 (15:50) 2.5 (07:40) 10.6 12.5 (23:20) 7.78 (22:40) 0 0 0 0 0
03-04-2020 18 (18:30) 0.8 (07:50) 9.4 4.17 (16:20) 2.5 (04:50) 0 0 0 0 0
02-04-2020 15.4 (15:40) 0.7 (00:00) 8 11.39 (18:00) 7.78 (18:00) 0 0 0 0 0
01-04-2020 13.4 (17:30) 6 (00:00) 9.7 6.67 (13:50) 3.89 (14:00) 5.2 2 0 3.2 0
31-03-2020 11.9 (17:30) 0.6 (00:00) 6.2 10.28 (16:00) 6.94 (16:00) 24.4 4.6 4.4 1.8 13.6
30-03-2020 12.2 (00:00) 1.5 (00:00) 6.8 12.22 (13:10) 8.89 (13:20) 2.4 0 0 0.8 1.6
29-03-2020 20 (17:40) 0.3 (00:00) 10.2 8.61 (23:40) 5.83 (23:50) 0 0 0 0 0
28-03-2020 17 (17:40) -0.8 (-00:0) 8.1 5.28 (18:40) 3.33 (18:40) 0 0 0 0 0
27-03-2020 12.3 (15:40) 2.1 (00:00) 7.2 8.33 (18:50) 5.83 (01:00) 1.2 0 0.6 0 0.6
26-03-2020 15.2 (14:10) -0.3 (00:00) 7.4 9.72 (14:10) 5.83 (15:00) 0 0 0 0 0
25-03-2020 17.3 (17:00) 3.7 (00:00) 10.5 7.22 (15:30) 4.44 (18:30) 0 0 0 0 0
24-03-2020 16.8 (15:40) 7.2 (00:00) 12 11.11 (11:50) 6.67 (11:20) 0 0 0 0 0
23-03-2020 15.6 (15:40) 7.3 (00:00) 11.5 9.72 (16:10) 5.83 (16:10) 2.4 1.4 0.8 0.2 0
22-03-2020 12.5 (15:50) 4.8 (07:40) 8.7 6.94 (13:00) 4.72 (13:00) 2 0.8 0 0.4 0.8
21-03-2020 10.9 (12:20) 7 (00:00) 8.9 6.67 (11:40) 3.89 (14:30) 1.4 0 0 0.2 1.2
20-03-2020 13.5 (14:30) 7.4 (00:00) 10.5 7.78 (13:10) 4.72 (13:20) 0 0 0 0 0
19-03-2020 18.4 (15:50) 7.8 (00:00) 13.1 7.5 (22:10) 5 (22:00) 0.2 0 0 0 0.2
18-03-2020 17.2 (15:10) 8 (00:00) 12.6 3.89 (05:00) 2.5 (01:50) 0 0 0 0 0
17-03-2020 17.7 (15:10) 5.3 (00:00) 11.5 11.94 (16:00) 6.94 (02:30) 2 1.6 0.2 0.2 0
16-03-2020 10.8 (00:00) 4.6 (00:00) 7.7 10.56 (15:20) 6.94 (16:50) 12.4 11.8 0.2 0.2 0.2
15-03-2020 21.9 (15:10) 6.1 (00:00) 14 13.89 (21:10) 7.22 (21:10) 9.8 0 0 0 9.8
14-03-2020 23.1 (15:50) 6.3 (00:00) 14.7 5.28 (10:20) 3.33 (00:10) 0 0 0 0 0
13-03-2020 24.9 (15:30) 8.7 (04:20) 16.8 9.72 (15:10) 5 (17:30) 0 0 0 0 0
12-03-2020 25.8 (16:00) 7.2 (00:00) 16.5 6.11 (14:40) 3.61 (09:10) 0 0 0 0 0
11-03-2020 25.9 (16:30) 4 (00:00) 14.9 5 (15:50) 3.06 (17:50) 0 0 0 0 0
10-03-2020 22.7 (17:00) 1.7 (00:00) 12.2 5.83 (14:00) 3.61 (14:00) 0 0 0 0 0
09-03-2020 17.5 (15:00) 0.4 (00:00) 9 10 (17:10) 6.39 (17:10) 0 0 0 0 0

Gráficas

Temp. máximas Temp. mínimas Temp. medias Precipitaciones Rachas de viento máximas Velocidades máximas media en intervalos de 10 minutos

Datos horarios

Fecha y hora oficial Temperatura (ºC) Velocidad del viento (km/h) Dirección del viento Racha (km/h) Dirección de racha Precipitación (mm) Presión (hPa) Tendencia (hPa) Humedad (%)
2020-04-07 23:00:00 14.4 2 Norte 8 Nordeste 0 -- -- 84
2020-04-07 22:00:00 14.4 5 Sudoeste 13 Sur 0 -- -- 85
2020-04-07 21:00:00 15 5 Sur 11 Sur 0 -- -- 85
2020-04-07 20:00:00 16.2 7 Sur 11 Sur 0 -- -- 82
2020-04-07 19:00:00 17.1 0 Calma 4 Sudeste 0 -- -- 78
2020-04-07 18:00:00 15.2 0 Calma 14 Sur 1.2 -- -- 85
2020-04-07 17:00:00 14.6 13 Sudoeste 33 Sur 2.4 -- -- 88
2020-04-07 16:00:00 19.1 4 Sudeste 12 Sur 0 -- -- 60
2020-04-07 15:00:00 18 5 Sudoeste 15 Sudoeste 0.2 -- -- 67
2020-04-07 14:00:00 17.7 5 Sudoeste 13 Sudoeste 0 -- -- 69
2020-04-07 13:00:00 17.5 4 Sur 14 Sudeste 0 -- -- 69
2020-04-07 12:00:00 15.2 8 Sur 17 Sur 0 -- -- 85
2020-04-07 11:00:00 14.3 5 Sudoeste 9 Sur 0 -- -- 88
2020-04-07 10:00:00 13 0 Calma 6 Nordeste 0 -- -- 95
2020-04-07 09:00:00 11.7 0 Calma 8 Noroeste 0 -- -- 96
2020-04-07 08:00:00 10.9 0 Calma 4 Noroeste 0 -- -- 95
2020-04-07 07:00:00 11.1 0 Calma 4 Este 0 -- -- 94
2020-04-07 06:00:00 11.7 0 Calma 4 Este 0 -- -- 94
2020-04-07 05:00:00 11.8 2 Sudeste 7 Oeste 0.2 -- -- 94
2020-04-07 04:00:00 12 5 Sudoeste 8 Oeste 1.4 -- -- 94
2020-04-07 03:00:00 12.3 4 Sudeste 10 Sudoeste 2.4 -- -- 93
2020-04-07 02:00:00 12.8 2 Oeste 12 Sudoeste 4.2 -- -- 92
2020-04-07 01:00:00 13.4 5 Sudeste 7 Oeste 1.4 -- -- 89
2020-04-07 00:00:00 14.1 4 Noroeste 6 Noroeste 0 -- -- 83
2020-04-06 23:00:00 14.5 0 Calma 9 Sudeste 0 -- -- 81
2020-04-06 22:00:00 14.7 3 Sudeste 8 Sudeste 0 -- -- 76
2020-04-06 21:00:00 15.7 4 Sudeste 10 Noroeste 0 -- -- 71
2020-04-06 20:00:00 16.9 9 Oeste 15 Noroeste 0 -- -- 61
2020-04-06 19:00:00 17.7 6 Sudoeste 21 Sudoeste 0 -- -- 63
2020-04-06 18:00:00 18 11 Sudoeste 23 Oeste 0 -- -- 63
2020-04-06 17:00:00 18.8 8 Sudoeste 21 Sudoeste 0 -- -- 65
2020-04-06 16:00:00 18.3 10 Sudoeste 22 Sudoeste 0 -- -- 65
2020-04-06 15:00:00 17.1 11 Sur 22 Sudeste 0 -- -- 75
2020-04-06 14:00:00 15.3 13 Sudeste 22 Sudeste 0 -- -- 82
2020-04-06 13:00:00 15.2 12 Sur 21 Sur 0 -- -- 81
2020-04-06 12:00:00 14.7 10 Sur 21 Sur 0 -- -- 83
2020-04-06 11:00:00 14.1 9 Sudoeste 24 Sur 0 -- -- 86
2020-04-06 10:00:00 12.4 15 Sur 27 Sudeste 0 -- -- 88
2020-04-06 09:00:00 11.8 8 Sur 19 Sur 0.2 -- -- 90
2020-04-06 08:00:00 11.9 4 Sur 17 Sur 1 -- -- 90
2020-04-06 07:00:00 12.7 10 Sur 19 Sur 0.2 -- -- 85
2020-04-06 06:00:00 12.9 6 Sur 19 Sudoeste 0 -- -- 84
2020-04-06 05:00:00 13.7 9 Sur 19 Sudoeste 0 -- -- 75
2020-04-06 04:00:00 13.9 9 Sur 21 Sur 0 -- -- 74
2020-04-06 03:00:00 14.3 13 Sur 21 Sur 0 -- -- 70
2020-04-06 02:00:00 14.3 12 Sur 25 Sur 0 -- -- 70
2020-04-06 01:00:00 15.3 12 Sur 21 Sur 0 -- -- 66
2020-04-06 00:00:00 15.5 15 Sur 28 Sur 0 -- -- 64
2020-04-05 23:00:00 14.2 8 Sur 15 Sur 0 -- -- 67
2020-04-05 22:00:00 14.1 0 Calma 9 Sur 0 -- -- 68
2020-04-05 21:00:00 16.4 3 Sur 10 Sudoeste 0 -- -- 59
2020-04-05 20:00:00 19.5 8 Sur 14 Sur 0 -- -- 48
2020-04-05 19:00:00 19.6 9 Sudoeste 24 Sur 0 -- -- 49
2020-04-05 18:00:00 19.7 9 Sur 22 Sur 0 -- -- 50
2020-04-05 17:00:00 20.1 12 Sur 23 Sudoeste 0 -- -- 47
2020-04-05 16:00:00 19.5 10 Sudoeste 36 Sudoeste 0 -- -- 48
2020-04-05 15:00:00 18.9 12 Sur 23 Sudoeste 0 -- -- 49
2020-04-05 14:00:00 17.5 14 Sur 25 Sur 0 -- -- 53
2020-04-05 13:00:00 17.1 9 Sur 21 Sur 0 -- -- 53
2020-04-05 12:00:00 15.3 6 Oeste 19 Sudoeste 0 -- -- 59
2020-04-05 11:00:00 14.3 8 Sur 15 Sur 0 -- -- 62
2020-04-05 10:00:00 11.9 3 Oeste 15 Sudeste 0 -- -- 70
2020-04-05 09:00:00 8.9 2 Este 8 Este 0 -- -- 82
2020-04-05 08:00:00 10.2 7 Noroeste 19 Noroeste 0 -- -- 75
2020-04-05 07:00:00 10.9 6 Noroeste 27 Sudeste 0 -- -- 73
2020-04-05 06:00:00 11 14 Sur 41 Sudeste 0 -- -- 71
2020-04-05 05:00:00 10.9 26 Sudeste 41 Sudeste 0 -- -- 72
2020-04-05 04:00:00 11 24 Sudeste 39 Sudeste 0 -- -- 75
2020-04-05 03:00:00 11.5 22 Sudeste 44 Sudeste 0 -- -- 69
2020-04-05 02:00:00 11.7 21 Sudeste 41 Sur 0 -- -- 65
2020-04-05 01:00:00 12.3 28 Sur 55 Sudeste 0 -- -- 62
2020-04-05 00:00:00 13 25 Sudeste 45 Sudeste 0 -- -- 57
2020-04-04 23:00:00 13.5 23 Sudeste 45 Sudeste 0 -- -- 56
2020-04-04 22:00:00 13.9 26 Sudeste 45 Sudeste 0 -- -- 57
2020-04-04 21:00:00 14.4 17 Sudeste 34 Sudeste 0 -- -- 56
2020-04-04 20:00:00 15.6 20 Sudeste 36 Sur 0 -- -- 50
2020-04-04 19:00:00 16.7 21 Sudeste 35 Sur 0 -- -- 45
2020-04-04 18:00:00 17.1 21 Sur 35 Sudeste 0 -- -- 44
2020-04-04 17:00:00 17.9 21 Sudeste 40 Sudeste 0 -- -- 44
2020-04-04 16:00:00 18.8 21 Sudeste 40 Sur 0 -- -- 43
2020-04-04 15:00:00 18.5 19 Sudeste 41 Sudeste 0 -- -- 43
2020-04-04 14:00:00 17.8 21 Sudeste 39 Sudeste 0 -- -- 45
2020-04-04 13:00:00 16.6 15 Sudeste 32 Sudeste 0 -- -- 55
2020-04-04 12:00:00 15.5 16 Sur 26 Sudeste 0 -- -- 58
2020-04-04 11:00:00 12.1 2 Este 12 Nordeste 0 -- -- 69
2020-04-04 10:00:00 7.8 8 Nordeste 13 Nordeste 0 -- -- 80
2020-04-04 09:00:00 4.2 9 Nordeste 14 Nordeste 0 -- -- 86
2020-04-04 08:00:00 2.6 8 Nordeste 14 Nordeste 0 -- -- 88
2020-04-04 07:00:00 2.9 10 Nordeste 17 Nordeste 0 -- -- 89
2020-04-04 06:00:00 3 7 Nordeste 13 Nordeste 0 -- -- 89
2020-04-04 05:00:00 3.5 12 Nordeste 17 Nordeste 0 -- -- 89
2020-04-04 04:00:00 3.6 9 Nordeste 14 Nordeste 0 -- -- 88
2020-04-04 03:00:00 4 8 Nordeste 13 Este 0 -- -- 88
2020-04-04 02:00:00 4.4 7 Nordeste 11 Nordeste 0 -- -- 86
2020-04-04 01:00:00 4.3 4 Nordeste 9 Nordeste 0 -- -- 82
2020-04-04 00:00:00 5.6 6 Nordeste 8 Nordeste 0 -- -- 78
2020-04-03 23:00:00 7.5 2 Oeste 5 Oeste 0 -- -- 73
2020-04-03 22:00:00 9.5 0 Calma 6 Sur 0 -- -- 64
2020-04-03 21:00:00 13.4 4 Sur 8 Sur 0 -- -- 52
2020-04-03 20:00:00 17.5 0 Calma 7 Oeste 0 -- -- 33
2020-04-03 19:00:00 17.7 4 Oeste 12 Oeste 0 -- -- 30
2020-04-03 18:00:00 17.7 4 Sudoeste 12 Este 0 -- -- 32
2020-04-03 17:00:00 16.8 4 Norte 15 Norte 0 -- -- 30
2020-04-03 16:00:00 16.5 7 Noroeste 12 Noroeste 0 -- -- 35
2020-04-03 15:00:00 15.6 5 Nordeste 14 Norte 0 -- -- 37
2020-04-03 14:00:00 14.3 5 Oeste 14 Noroeste 0 -- -- 43
2020-04-03 13:00:00 13.2 5 Sudoeste 11 Oeste 0 -- -- 48
2020-04-03 12:00:00 11.5 5 Este 10 Norte 0 -- -- 54
2020-04-03 11:00:00 8.9 4 Nordeste 9 Nordeste 0 -- -- 68
2020-04-03 10:00:00 5.5 4 Nordeste 9 Este 0 -- -- 86
2020-04-03 09:00:00 2.2 2 Este 5 Nordeste 0 -- -- 95
2020-04-03 08:00:00 1 3 Nordeste 7 Nordeste 0 -- -- 94
2020-04-03 07:00:00 1.1 2 Este 4 Este 0 -- -- 92
2020-04-03 06:00:00 2.1 0 Calma 5 Sudoeste 0 -- -- 91
2020-04-03 05:00:00 3.4 4 Nordeste 12 Nordeste 0 -- -- 90
2020-04-03 04:00:00 3.4 4 Este 6 Este 0 -- -- 89
2020-04-03 03:00:00 4.6 5 Norte 7 Norte 0 -- -- 89
2020-04-03 02:00:00 6.1 0 Calma 7 Nordeste 0 -- -- 82
2020-04-03 01:00:00 7.5 5 Nordeste 9 Nordeste 0 -- -- 79
2020-04-03 00:00:00 9.8 7 Nordeste 12 Nordeste 0 -- -- 71
2020-04-02 23:00:00 10.7 6 Nordeste 17 Nordeste 0 -- -- 68
2020-04-02 22:00:00 11.6 13 Nordeste 22 Nordeste 0 -- -- 64
2020-04-02 21:00:00 12.1 16 Nordeste 34 Nordeste 0 -- -- 60
2020-04-02 20:00:00 12.9 22 Nordeste 38 Nordeste 0 -- -- 57
2020-04-02 19:00:00 13.9 20 Nordeste 38 Nordeste 0 -- -- 55
2020-04-02 18:00:00 14.8 28 Nordeste 41 Nordeste 0 -- -- 54
2020-04-02 17:00:00 14.6 24 Nordeste 37 Nordeste 0 -- -- 55
2020-04-02 16:00:00 14.3 25 Nordeste 38 Norte 0 -- -- 59
2020-04-02 15:00:00 14 14 Nordeste 39 Nordeste 0 -- -- 62
2020-04-02 14:00:00 14.7 18 Nordeste 29 Nordeste 0 -- -- 62
2020-04-02 13:00:00 13.2 9 Nordeste 20 Norte 0 -- -- 62
2020-04-02 12:00:00 12.2 8 Nordeste 14 Nordeste 0 -- -- 72
2020-04-02 11:00:00 9.2 9 Nordeste 15 Nordeste 0 -- -- 82
2020-04-02 10:00:00 5.9 9 Nordeste 13 Nordeste 0 -- -- 97
2020-04-02 09:00:00 3 6 Este 10 Nordeste 0 -- -- 98
2020-04-02 08:00:00 0.8 4 Nordeste 5 Nordeste 0 -- -- 96
2020-04-02 07:00:00 1.2 0 Calma 9 Nordeste 0 -- -- 95
2020-04-02 06:00:00 1.2 2 Este 6 Nordeste 0 -- -- 95
2020-04-02 05:00:00 1.7 3 Nordeste 6 Nordeste 0 -- -- 95
2020-04-02 04:00:00 2.2 5 Nordeste 6 Nordeste 0 -- -- 94
2020-04-02 03:00:00 3.2 2 Norte 4 Sudeste 0 -- -- 94
2020-04-02 02:00:00 3.8 3 Nordeste 6 Norte 0 -- -- 93
2020-04-02 01:00:00 4.8 0 Calma 2 Norte 0 -- -- 91
2020-04-02 00:00:00 6 0 Calma 4 Nordeste 0 -- -- 89
2020-04-01 23:00:00 7.2 0 Calma 6 Noroeste 0 -- -- 85
2020-04-01 22:00:00 8.8 0 Calma 5 Sudoeste 0 -- -- 81
2020-04-01 21:00:00 10.9 3 Sudoeste 18 Oeste 0 -- -- 73
2020-04-01 20:00:00 13 3 Sudeste 6 Sudeste 0 -- -- 65
2020-04-01 19:00:00 12.8 3 Sudoeste 11 Sudoeste 0 -- -- 64
2020-04-01 18:00:00 12.8 8 Sudoeste 15 Sudoeste 0 -- -- 68
2020-04-01 17:00:00 12.9 5 Sudoeste 9 Norte 0.2 -- -- 71
2020-04-01 16:00:00 12.9 5 Oeste 11 Oeste 0 -- -- 75
2020-04-01 15:00:00 10.2 3 Sudoeste 19 Oeste 1.6 -- -- 89
2020-04-01 14:00:00 9.8 14 Oeste 24 Sudoeste 1 -- -- 85
2020-04-01 13:00:00 10.3 4 Oeste 18 Oeste 0.4 -- -- 87
2020-04-01 12:00:00 9.8 13 Oeste 22 Oeste 0 -- -- 86
2020-04-01 11:00:00 10.1 3 Sudoeste 9 Nordeste 0 -- -- 87
2020-04-01 10:00:00 9 0 Calma 4 Oeste 0 -- -- 93
2020-04-01 09:00:00 8.1 0 Calma 7 Nordeste 0 -- -- 94
2020-04-01 08:00:00 7.9 4 Nordeste 8 Nordeste 0 -- -- 94
2020-04-01 07:00:00 8 0 Calma 10 Nordeste 0 -- -- 93
2020-04-01 06:00:00 8.2 3 Este 9 Nordeste 0.2 -- -- 91
2020-04-01 05:00:00 8 3 Nordeste 5 Nordeste 0 -- -- 92
2020-04-01 04:00:00 8.3 3 Sudoeste 9 Oeste 0 -- -- 90
2020-04-01 03:00:00 8.3 4 Nordeste 13 Este 0 -- -- 89
2020-04-01 02:00:00 8.7 5 Sudeste 20 Sudeste 0.2 -- -- 87
2020-04-01 01:00:00 8.5 6 Sudeste 20 Sudeste 1.6 -- -- 92
2020-04-01 00:00:00 8.5 7 Sudeste 14 Sudeste 6.6 -- -- 92
2020-03-31 23:00:00 9.3 0 Calma 17 Sur 5.2 -- -- 90
2020-03-31 22:00:00 9.9 8 Sudeste 19 Este 0.4 -- -- 88
2020-03-31 21:00:00 9.9 13 Sudeste 27 Este 0.2 -- -- 86
2020-03-31 20:00:00 10.5 13 Sudeste 27 Sudeste 0.6 -- -- 86
2020-03-31 19:00:00 10.7 12 Sudeste 32 Sudeste 0.6 -- -- 85
2020-03-31 18:00:00 11.8 18 Sudeste 32 Sudeste 0 -- -- 80
2020-03-31 17:00:00 11.3 18 Sudeste 35 Sudeste 0.6 -- -- 82
2020-03-31 16:00:00 11.5 25 Sudeste 37 Sur 0.4 -- -- 82
2020-03-31 15:00:00 11.2 13 Sudeste 29 Sudeste 0 -- -- 86
2020-03-31 14:00:00 6.5 18 Nordeste 26 Nordeste 0.4 -- -- 94
2020-03-31 13:00:00 4.3 18 Nordeste 27 Nordeste 0.4 -- -- 95
2020-03-31 12:00:00 3.6 18 Nordeste 26 Nordeste 1.2 -- -- 94
2020-03-31 11:00:00 2.9 15 Nordeste 24 Nordeste 1.2 -- -- 93
2020-03-31 10:00:00 2.5 11 Nordeste 24 Nordeste 1.2 -- -- 94
2020-03-31 09:00:00 2 15 Nordeste 23 Nordeste 0.4 -- -- 94
2020-03-31 08:00:00 1.3 16 Nordeste 32 Nordeste 0 -- -- 94
2020-03-31 07:00:00 0.9 21 Nordeste 34 Nordeste 0.4 -- -- 95
2020-03-31 06:00:00 0.7 19 Nordeste 30 Nordeste 0.6 -- -- 95
2020-03-31 05:00:00 0.6 22 Nordeste 34 Nordeste 0.4 -- -- 95
2020-03-31 04:00:00 0.7 21 Nordeste 32 Nordeste 0.8 -- -- 95
2020-03-31 03:00:00 0.7 21 Nordeste 31 Nordeste 0.8 -- -- 95
2020-03-31 02:00:00 0.6 16 Nordeste 29 Nordeste 1 -- -- 95
2020-03-31 01:00:00 0.6 15 Nordeste 27 Nordeste 1 -- -- 94
2020-03-31 00:00:00 1.5 17 Nordeste 27 Nordeste 1.2 -- -- 92
2020-03-30 23:00:00 2.3 20 Nordeste 32 Nordeste 0.2 -- -- 89
2020-03-30 22:00:00 2.7 21 Nordeste 36 Nordeste 0.2 -- -- 86
2020-03-30 21:00:00 2.8 21 Nordeste 36 Nordeste 0 -- -- 85
2020-03-30 20:00:00 3.2 18 Nordeste 32 Nordeste 0 -- -- 84
2020-03-30 19:00:00 3.6 21 Nordeste 34 Nordeste 0 -- -- 84
2020-03-30 18:00:00 3.7 22 Nordeste 33 Nordeste 0.4 -- -- 86
2020-03-30 17:00:00 3.9 18 Este 31 Este 0.2 -- -- 85
2020-03-30 16:00:00 3.6 19 Este 40 Este 0.2 -- -- 84
2020-03-30 15:00:00 4.2 26 Nordeste 42 Nordeste 0 -- -- 73
2020-03-30 14:00:00 6.3 31 Nordeste 44 Nordeste 0 -- -- 57
2020-03-30 13:00:00 6.8 29 Nordeste 42 Norte 0 -- -- 55
2020-03-30 12:00:00 7.4 28 Nordeste 40 Norte 0 -- -- 57
2020-03-30 11:00:00 6.5 22 Nordeste 34 Nordeste 0 -- -- 59
2020-03-30 10:00:00 6.6 23 Nordeste 33 Nordeste 0 -- -- 62
2020-03-30 09:00:00 6.1 19 Nordeste 35 Nordeste 0 -- -- 63
2020-03-30 08:00:00 6.3 22 Nordeste 33 Nordeste 0 -- -- 65
2020-03-30 07:00:00 7 21 Nordeste 31 Nordeste 0 -- -- 64
2020-03-30 06:00:00 7.6 21 Nordeste 33 Nordeste 0 -- -- 63
2020-03-30 05:00:00 8.3 18 Nordeste 29 Nordeste 0 -- -- 62
2020-03-30 04:00:00 9 18 Nordeste 27 Nordeste 0 -- -- 63
2020-03-30 03:00:00 9.1 13 Nordeste 25 Nordeste 0 -- -- 65
2020-03-30 02:00:00 9.5 13 Nordeste 23 Nordeste 0 -- -- 64
2020-03-30 01:00:00 10.7 14 Nordeste 27 Nordeste 0 -- -- 59
2020-03-30 00:00:00 12.2 19 Nordeste 31 Nordeste 0 -- -- 51
2020-03-29 23:00:00 14.3 13 Norte 24 Noroeste 0 -- -- 44
2020-03-29 22:00:00 14.5 11 Oeste 18 Oeste 0 -- -- 48
2020-03-29 21:00:00 14.9 6 Sudoeste 11 Sur 0 -- -- 47
2020-03-29 20:00:00 17.2 6 Sudoeste 19 Sudoeste 0 -- -- 39
2020-03-29 19:00:00 18.8 10 Sudoeste 22 Sudoeste 0 -- -- 36
2020-03-29 18:00:00 19.2 4 Sudeste 16 Sudoeste 0 -- -- 35
2020-03-29 17:00:00 19.4 5 Sudeste 14 Oeste 0 -- -- 32
2020-03-29 16:00:00 19 5 Noroeste 18 Sudoeste 0 -- -- 34
2020-03-29 15:00:00 18.2 6 Oeste 20 Oeste 0 -- -- 38
2020-03-29 14:00:00 16.6 10 Oeste 18 Oeste 0 -- -- 42
2020-03-29 13:00:00 14.7 8 Oeste 14 Oeste 0 -- -- 46
2020-03-29 12:00:00 12.5 2 Oeste 6 Este 0 -- -- 56
2020-03-29 11:00:00 9.4 4 Este 10 Nordeste 0 -- -- 66
2020-03-29 10:00:00 5.5 7 Nordeste 12 Este 0 -- -- 82
2020-03-29 09:00:00 1.7 6 Este 9 Este 0 -- -- 93
2020-03-29 08:00:00 0.4 5 Nordeste 8 Nordeste 0 -- -- 92
2020-03-29 07:00:00 0.7 4 Este 6 Este 0 -- -- 91
2020-03-29 06:00:00 1.1 3 Nordeste 5 Nordeste 0 -- -- 89
2020-03-29 05:00:00 2.3 2 Este 6 Nordeste 0 -- -- 88
2020-03-29 03:00:00 2.7 6 Nordeste 8 Nordeste 0 -- -- 85
2020-03-29 01:00:00 3.4 4 Nordeste 6 Nordeste 0 -- -- 80
2020-03-29 00:00:00 4.8 3 Nordeste 4 Nordeste 0 -- -- 77
2020-03-28 23:00:00 6.1 2 Norte 6 Norte 0 -- -- 72
2020-03-28 22:00:00 7.7 0 Calma 4 Sudoeste 0 -- -- 67
2020-03-28 21:00:00 9.4 3 Sudoeste 6 Oeste 0 -- -- 59
2020-03-28 20:00:00 12.1 4 Sur 12 Sudoeste 0 -- -- 52
2020-03-28 19:00:00 15.3 10 Sudoeste 19 Sudoeste 0 -- -- 40
2020-03-28 18:00:00 16.4 5 Sudoeste 15 Sudoeste 0 -- -- 37
2020-03-28 17:00:00 16.5 5 Oeste 17 Oeste 0 -- -- 36
2020-03-28 16:00:00 16.3 6 Sur 16 Sudoeste 0 -- -- 37
2020-03-28 15:00:00 16 8 Sudoeste 17 Oeste 0 -- -- 37
2020-03-28 14:00:00 15.1 5 Nordeste 13 Este 0 -- -- 39
2020-03-28 13:00:00 13.9 5 Noroeste 12 Nordeste 0 -- -- 40
2020-03-28 12:00:00 12.8 4 Oeste 11 Sudoeste 0 -- -- 42
2020-03-28 11:00:00 10.9 2 Norte 10 Nordeste 0 -- -- 52
2020-03-28 10:00:00 7.6 8 Nordeste 17 Nordeste 0 -- -- 70
2020-03-28 09:00:00 3.9 7 Nordeste 13 Nordeste 0 -- -- 85
2020-03-28 08:00:00 0.2 3 Nordeste 9 Nordeste 0 -- -- 94
2020-03-28 07:00:00 -0.7 5 Este 9 Nordeste 0 -- -- 94
2020-03-28 06:00:00 -0.6 3 Este 8 Nordeste 0 -- -- 93
2020-03-28 05:00:00 -0.1 3 Este 7 Nordeste 0 -- -- 93
2020-03-28 04:00:00 0.3 2 Este 9 Nordeste 0 -- -- 92
2020-03-28 03:00:00 1 7 Nordeste 10 Nordeste 0 -- -- 93
2020-03-28 02:00:00 1 6 Nordeste 10 Nordeste 0 -- -- 91
2020-03-28 01:00:00 1.1 4 Nordeste 6 Nordeste 0 -- -- 91
2020-03-28 00:00:00 2.1 2 Este 6 Nordeste 0 -- -- 89
2020-03-27 23:00:00 3.1 2 Este 4 Este 0 -- -- 88
2020-03-27 22:00:00 4.2 0 Calma 6 Sudoeste 0 -- -- 85
2020-03-27 21:00:00 5.3 4 Sudoeste 9 Sudoeste 0 -- -- 79
2020-03-27 20:00:00 6.5 6 Sudoeste 20 Sur 0 -- -- 76
2020-03-27 19:00:00 8.6 16 Sur 30 Sur 0.6 -- -- 73
2020-03-27 18:00:00 11.2 4 Oeste 18 Sur 0 -- -- 54
2020-03-27 17:00:00 12.2 5 Sur 21 Sur 0 -- -- 49
2020-03-27 16:00:00 11.2 6 Sudeste 22 Sudeste 0 -- -- 51
2020-03-27 15:00:00 11.4 12 Sudeste 22 Este 0 -- -- 54
2020-03-27 14:00:00 9.7 10 Sudeste 22 Este 0 -- -- 60
2020-03-27 13:00:00 7.9 14 Este 26 Este 0 -- -- 65
2020-03-27 12:00:00 7.7 15 Este 26 Este 0 -- -- 67
2020-03-27 11:00:00 7.8 11 Este 20 Este 0 -- -- 73
2020-03-27 10:00:00 4.6 12 Este 23 Nordeste 0.2 -- -- 82
2020-03-27 09:00:00 3 15 Nordeste 28 Este 0.2 -- -- 87
2020-03-27 08:00:00 2.7 12 Nordeste 28 Este 0.2 -- -- 86
2020-03-27 07:00:00 3.2 14 Nordeste 24 Nordeste 0 -- -- 81
2020-03-27 06:00:00 3.5 16 Nordeste 28 Nordeste 0 -- -- 75
2020-03-27 05:00:00 4.8 15 Nordeste 26 Nordeste 0 -- -- 61
2020-03-27 04:00:00 5.1 16 Nordeste 23 Nordeste 0 -- -- 64
2020-03-27 03:00:00 5.9 16 Nordeste 28 Nordeste 0 -- -- 58
2020-03-27 02:00:00 6.1 14 Nordeste 24 Nordeste 0 -- -- 57
2020-03-27 01:00:00 6.7 21 Nordeste 29 Nordeste 0 -- -- 54
2020-03-27 00:00:00 5.9 8 Este 16 Nordeste 0 -- -- 65
2020-03-26 23:00:00 5.5 9 Nordeste 13 Nordeste 0 -- -- 64
2020-03-26 22:00:00 6.7 9 Nordeste 19 Este 0 -- -- 60
2020-03-26 21:00:00 8.3 5 Este 21 Norte 0 -- -- 54
2020-03-26 20:00:00 10.4 13 Norte 22 Norte 0 -- -- 47
2020-03-26 19:00:00 12.2 15 Norte 28 Norte 0 -- -- 38
2020-03-26 18:00:00 13.8 13 Norte 30 Norte 0 -- -- 37
2020-03-26 17:00:00 14.8 12 Norte 32 Nordeste 0 -- -- 37
2020-03-26 16:00:00 15.2 18 Norte 33 Noroeste 0 -- -- 36
2020-03-26 15:00:00 15.2 21 Noroeste 35 Noroeste 0 -- -- 32
2020-03-26 14:00:00 14.9 18 Norte 32 Noroeste 0 -- -- 34
2020-03-26 13:00:00 14.2 15 Norte 32 Noroeste 0 -- -- 31
2020-03-26 12:00:00 12.8 12 Nordeste 20 Nordeste 0 -- -- 37
2020-03-26 11:00:00 10.6 9 Nordeste 17 Nordeste 0 -- -- 38
2020-03-26 10:00:00 7.7 10 Nordeste 17 Nordeste 0 -- -- 49
2020-03-26 09:00:00 4.4 9 Nordeste 17 Nordeste 0 -- -- 66
2020-03-26 08:00:00 0.8 10 Nordeste 15 Nordeste 0 -- -- 84
2020-03-26 07:00:00 -0.1 10 Nordeste 15 Nordeste 0 -- -- 93
2020-03-26 06:00:00 0.4 6 Nordeste 15 Nordeste 0 -- -- 93
2020-03-26 05:00:00 0.5 6 Nordeste 8 Nordeste 0 -- -- 92
2020-03-26 04:00:00 1.3 3 Nordeste 8 Este 0 -- -- 92
2020-03-26 03:00:00 3 2 Nordeste 7 Nordeste 0 -- -- 90
2020-03-26 02:00:00 3.7 5 Este 8 Nordeste 0 -- -- 90
2020-03-26 01:00:00 4.2 2 Este 5 Nordeste 0 -- -- 86
2020-03-26 00:00:00 5.3 3 Nordeste 6 Nordeste 0 -- -- 81
2020-03-25 23:00:00 6.6 4 Este 15 Nordeste 0 -- -- 76
2020-03-25 22:00:00 8 4 Nordeste 11 Nordeste 0 -- -- 68
2020-03-25 21:00:00 11 4 Noroeste 11 Norte 0 -- -- 53
2020-03-25 20:00:00 13.3 5 Noroeste 15 Sudoeste 0 -- -- 54
2020-03-25 19:00:00 14.6 8 Sudoeste 24 Sudoeste 0 -- -- 58
2020-03-25 18:00:00 15.1 13 Sudoeste 20 Oeste 0 -- -- 55
2020-03-25 17:00:00 17.3 14 Sudoeste 25 Sudoeste 0 -- -- 47
2020-03-25 16:00:00 16.6 10 Sur 26 Sudoeste 0 -- -- 51
2020-03-25 15:00:00 16.5 10 Sudoeste 24 Oeste 0 -- -- 50
2020-03-25 14:00:00 15.2 13 Sudoeste 22 Oeste 0 -- -- 52
2020-03-25 13:00:00 13.9 7 Sudoeste 20 Oeste 0 -- -- 56
2020-03-25 12:00:00 12.4 8 Sudoeste 20 Sudoeste 0 -- -- 60
2020-03-25 11:00:00 10.8 10 Sudoeste 19 Sudoeste 0 -- -- 66
2020-03-25 10:00:00 9.4 10 Sudoeste 19 Sudoeste 0 -- -- 72
2020-03-25 09:00:00 7.1 8 Sudoeste 12 Sudoeste 0 -- -- 86
2020-03-25 08:00:00 4.1 2 Oeste 4 Oeste 0 -- -- 93
2020-03-25 07:00:00 4.1 0 Calma 4 Sudoeste 0 -- -- 89
2020-03-25 06:00:00 5.6 3 Sur 6 Sur 0 -- -- 86
2020-03-25 05:00:00 7 3 Sur 10 Sudoeste 0 -- -- 82
2020-03-25 04:00:00 8.2 8 Sudoeste 14 Sudoeste 0 -- -- 78
2020-03-25 03:00:00 8.5 10 Sudoeste 17 Sudoeste 0 -- -- 78
2020-03-25 02:00:00 9.1 9 Sudoeste 14 Sudoeste 0 -- -- 79
2020-03-25 01:00:00 8.9 0 Calma 9 Nordeste 0 -- -- 81
2020-03-25 00:00:00 9.1 3 Este 10 Nordeste 0 -- -- 78
2020-03-24 23:00:00 9.9 7 Nordeste 15 Nordeste 0 -- -- 74
2020-03-24 22:00:00 10.1 9 Nordeste 21 Nordeste 0 -- -- 75
2020-03-24 21:00:00 11.5 15 Nordeste 21 Nordeste 0 -- -- 68
2020-03-24 20:00:00 13.1 5 Nordeste 17 Norte 0 -- -- 63
2020-03-24 19:00:00 14 12 Nordeste 26 Nordeste 0 -- -- 57
2020-03-24 18:00:00 15 14 Nordeste 23 Nordeste 0 -- -- 55
2020-03-24 17:00:00 15.7 17 Nordeste 26 Nordeste 0 -- -- 52
2020-03-24 16:00:00 16.1 15 Nordeste 26 Nordeste 0 -- -- 50
2020-03-24 15:00:00 15.5 13 Nordeste 23 Este 0 -- -- 51
2020-03-24 14:00:00 15.2 18 Nordeste 27 Nordeste 0 -- -- 56
2020-03-24 13:00:00 15.2 19 Nordeste 32 Nordeste 0 -- -- 58
2020-03-24 12:00:00 15 16 Nordeste 40 Este 0 -- -- 58
2020-03-24 11:00:00 13.3 19 Nordeste 34 Nordeste 0 -- -- 66
2020-03-24 10:00:00 11.4 20 Nordeste 32 Nordeste 0 -- -- 73
2020-03-24 09:00:00 9.3 18 Nordeste 27 Nordeste 0 -- -- 81
2020-03-24 08:00:00 8.5 15 Nordeste 24 Nordeste 0 -- -- 84
2020-03-24 07:00:00 8.1 13 Nordeste 22 Nordeste 0 -- -- 87
2020-03-24 06:00:00 7.9 14 Nordeste 21 Nordeste 0 -- -- 88
2020-03-24 05:00:00 7.7 10 Nordeste 15 Nordeste 0 -- -- 88
2020-03-24 04:00:00 7.9 9 Nordeste 18 Nordeste 0 -- -- 88
2020-03-24 03:00:00 7.4 10 Nordeste 14 Nordeste 0 -- -- 89
2020-03-24 02:00:00 7.4 7 Nordeste 20 Nordeste 0 -- -- 86
2020-03-24 01:00:00 7.6 7 Nordeste 13 Nordeste 0 -- -- 91
2020-03-24 00:00:00 7.3 6 Nordeste 10 Nordeste 0 -- -- 88
2020-03-23 23:00:00 8.2 9 Nordeste 12 Nordeste 0 -- -- 86
2020-03-23 22:00:00 9.8 8 Nordeste 15 Nordeste 0 -- -- 81
2020-03-23 21:00:00 10.4 9 Nordeste 13 Nordeste 0 -- -- 76
2020-03-23 20:00:00 11.2 6 Nordeste 13 Nordeste 0 -- -- 74
2020-03-23 19:00:00 13.8 8 Este 20 Nordeste 0 -- -- 61
2020-03-23 18:00:00 13.7 12 Nordeste 29 Este 0 -- -- 63
2020-03-23 17:00:00 13.2 14 Sudeste 35 Sudeste 0 -- -- 65
2020-03-23 16:00:00 15 16 Sudeste 32 Sudeste 0 -- -- 58
2020-03-23 15:00:00 14.9 18 Este 26 Nordeste 0.2 -- -- 59
2020-03-23 14:00:00 13.9 16 Este 27 Este 0 -- -- 64
2020-03-23 13:00:00 12.9 14 Nordeste 21 Nordeste 0 -- -- 76
2020-03-23 12:00:00 10.4 7 Norte 12 Nordeste 0.4 -- -- 83
2020-03-23 11:00:00 10.3 5 Nordeste 12 Nordeste 0 -- -- 84
2020-03-23 10:00:00 9.3 7 Nordeste 12 Nordeste 0 -- -- 91
2020-03-23 09:00:00 8.8 4 Nordeste 9 Nordeste 0 -- -- 95
2020-03-23 08:00:00 8.1 3 Nordeste 5 Nordeste 0.2 -- -- 95
2020-03-23 07:00:00 8 0 Calma 5 Sudeste 0.2 -- -- 95
2020-03-23 06:00:00 8.3 0 Calma 6 Nordeste 0.2 -- -- 95
2020-03-23 05:00:00 8.1 3 Nordeste 5 Norte 0.2 -- -- 94
2020-03-23 04:00:00 8.1 3 Nordeste 5 Nordeste 0.2 -- -- 93
2020-03-23 03:00:00 8.4 3 Sudeste 7 Nordeste 0.4 -- -- 92
2020-03-23 02:00:00 8.7 4 Nordeste 9 Nordeste 0.4 -- -- 88
2020-03-23 01:00:00 8.6 3 Nordeste 11 Nordeste 0 -- -- 90
2020-03-23 00:00:00 8.9 4 Norte 13 Este 0.4 -- -- 91
2020-03-22 23:00:00 9.3 5 Oeste 14 Sudoeste 0.4 -- -- 88
2020-03-22 22:00:00 9.7 3 Sudoeste 12 Oeste 0 -- -- 83
2020-03-22 21:00:00 9.8 3 Sur 17 Este 0 -- -- 82
2020-03-22 20:00:00 10 0 Calma 6 Oeste 0 -- -- 81
2020-03-22 19:00:00 11 4 Oeste 17 Sudeste 0 -- -- 77
2020-03-22 18:00:00 11.6 12 Sudeste 23 Sudeste 0 -- -- 73
2020-03-22 17:00:00 11.7 9 Nordeste 19 Nordeste 0 -- -- 80
2020-03-22 16:00:00 12.3 12 Norte 21 Nordeste 0 -- -- 72
2020-03-22 15:00:00 11.2 12 Nordeste 18 Nordeste 0 -- -- 76
2020-03-22 14:00:00 10.5 10 Norte 22 Nordeste 0.2 -- -- 81
2020-03-22 13:00:00 9.9 17 Nordeste 25 Nordeste 0.2 -- -- 86
2020-03-22 12:00:00 10.3 15 Nordeste 20 Nordeste 0 -- -- 86
2020-03-22 11:00:00 10 9 Nordeste 15 Nordeste 0 -- -- 83
2020-03-22 10:00:00 8.6 6 Este 11 Nordeste 0 -- -- 90
2020-03-22 09:00:00 7.8 4 Nordeste 7 Nordeste 0 -- -- 94
2020-03-22 08:00:00 5.2 3 Nordeste 5 Este 0 -- -- 95
2020-03-22 07:00:00 5.3 4 Este 6 Este 0 -- -- 94
2020-03-22 06:00:00 6.7 3 Sudeste 4 Sudeste 0 -- -- 94
2020-03-22 05:00:00 7.2 3 Nordeste 9 Nordeste 0 -- -- 94
2020-03-22 04:00:00 7.3 3 Este 5 Este 0 -- -- 94
2020-03-22 03:00:00 7.3 2 Nordeste 8 Norte 0 -- -- 92
2020-03-22 02:00:00 7.3 3 Nordeste 9 Nordeste 0.4 -- -- 90
2020-03-22 01:00:00 7.4 6 Nordeste 10 Nordeste 0.4 -- -- 92
2020-03-22 00:00:00 7.6 7 Nordeste 12 Nordeste 0.2 -- -- 89
2020-03-21 23:00:00 8 5 Este 17 Sudeste 0.2 -- -- 85
2020-03-21 22:00:00 8.1 5 Nordeste 8 Nordeste 0.2 -- -- 92
2020-03-21 21:00:00 8.3 0 Calma 5 Nordeste 0 -- -- 92
2020-03-21 20:00:00 8.4 5 Nordeste 6 Nordeste 0.4 -- -- 90
2020-03-21 19:00:00 8.9 0 Calma 6 Oeste 0.2 -- -- 87
2020-03-21 18:00:00 9.3 3 Noroeste 7 Sur 0.2 -- -- 83
2020-03-21 17:00:00 9.6 2 Sudeste 18 Sur 0 -- -- 81
2020-03-21 16:00:00 9.4 10 Sudoeste 21 Sudoeste 0 -- -- 85
2020-03-21 15:00:00 9.2 13 Sudoeste 22 Sudoeste 0 -- -- 87
2020-03-21 14:00:00 10.5 8 Sur 19 Sudeste 0 -- -- 84
2020-03-21 13:00:00 10.7 11 Sudeste 23 Sudeste 0 -- -- 81
2020-03-21 12:00:00 10.6 8 Sudeste 24 Sudeste 0 -- -- 76
2020-03-21 11:00:00 10.3 5 Sudeste 18 Este 0 -- -- 77
2020-03-21 10:00:00 10 5 Norte 13 Nordeste 0 -- -- 76
2020-03-21 09:00:00 9.7 4 Nordeste 17 Nordeste 0 -- -- 75
2020-03-21 08:00:00 9.3 10 Nordeste 18 Nordeste 0 -- -- 75
2020-03-21 07:00:00 8.4 8 Nordeste 13 Nordeste 0 -- -- 82
2020-03-21 06:00:00 7.4 6 Este 12 Nordeste 0 -- -- 89
2020-03-21 05:00:00 7 9 Nordeste 11 Nordeste 0 -- -- 88
2020-03-21 04:00:00 7.5 2 Este 15 Este 0 -- -- 84
2020-03-21 03:00:00 7.9 4 Este 20 Este 0 -- -- 84
2020-03-21 02:00:00 7.7 0 Calma 5 Sudoeste 0 -- -- 88
2020-03-21 01:00:00 7.5 2 Sur 15 Sur 0 -- -- 87
2020-03-21 00:00:00 7.9 5 Sur 17 Este 0 -- -- 84
2020-03-20 23:00:00 8 5 Nordeste 9 Este 0 -- -- 84
2020-03-20 22:00:00 10.3 0 Calma 5 Nordeste 0 -- -- 79
2020-03-20 21:00:00 11.5 3 Nordeste 6 Este 0 -- -- 75
2020-03-20 20:00:00 12.1 4 Este 11 Este 0 -- -- 70
2020-03-20 19:00:00 12.6 7 Este 14 Sudeste 0 -- -- 67
2020-03-20 18:00:00 13 8 Sudeste 20 Sudeste 0 -- -- 64
2020-03-20 17:00:00 13 9 Sudeste 18 Este 0 -- -- 66
2020-03-20 16:00:00 13.1 9 Este 18 Sudeste 0 -- -- 65
2020-03-20 15:00:00 13.5 10 Este 23 Sudeste 0 -- -- 64
2020-03-20 14:00:00 13.1 14 Sudeste 28 Sudeste 0 -- -- 65
2020-03-20 13:00:00 13 13 Sudeste 25 Sur 0 -- -- 67
2020-03-20 12:00:00 12.3 7 Sudeste 19 Sudeste 0 -- -- 69
2020-03-20 11:00:00 12.1 6 Este 17 Sudeste 0 -- -- 68
2020-03-20 10:00:00 11.4 5 Sur 13 Sudeste 0 -- -- 68
2020-03-20 09:00:00 10.5 0 Calma 4 Oeste 0 -- -- 71
2020-03-20 08:00:00 9.8 0 Calma 9 Este 0 -- -- 74
2020-03-20 07:00:00 9.7 0 Calma 12 Nordeste 0 -- -- 76
2020-03-20 06:00:00 9.9 5 Nordeste 17 Este 0 -- -- 75
2020-03-20 05:00:00 10.4 4 Este 16 Este 0 -- -- 75
2020-03-20 04:00:00 10.6 6 Sudeste 15 Sudeste 0 -- -- 74
2020-03-20 03:00:00 10.8 5 Norte 12 Nordeste 0 -- -- 72
2020-03-20 02:00:00 10.8 4 Noroeste 11 Norte 0 -- -- 73
2020-03-20 01:00:00 10.6 4 Norte 18 Este 0 -- -- 77
2020-03-20 00:00:00 11.3 5 Este 13 Sur 0 -- -- 74
2020-03-19 23:00:00 11.5 6 Este 27 Sudeste 0 -- -- 73
2020-03-19 22:00:00 11.2 18 Sudeste 27 Sudeste 0.2 -- -- 77
2020-03-19 21:00:00 12 10 Sur 21 Sur 0 -- -- 71
2020-03-19 20:00:00 13 5 Sur 19 Sur 0 -- -- 68
2020-03-19 19:00:00 15.2 10 Sur 16 Sur 0 -- -- 60
2020-03-19 18:00:00 17.1 9 Sur 19 Sudeste 0 -- -- 53
2020-03-19 17:00:00 18 7 Sudeste 19 Sur 0 -- -- 47
2020-03-19 16:00:00 18.2 11 Sudeste 21 Este 0 -- -- 48
2020-03-19 15:00:00 18 7 Sudeste 17 Sudeste 0 -- -- 48
2020-03-19 14:00:00 17.5 6 Sudeste 14 Este 0 -- -- 48
2020-03-19 13:00:00 16.3 9 Este 23 Sudeste 0 -- -- 49
2020-03-19 12:00:00 15.3 11 Este 22 Este 0 -- -- 52
2020-03-19 11:00:00 13.7 5 Este 12 Sur 0 -- -- 69
2020-03-19 10:00:00 11.6 2 Norte 7 Norte 0 -- -- 82
2020-03-19 09:00:00 9.8 0 Calma 3 Este 0 -- -- 93
2020-03-19 08:00:00 9 0 Calma 4 Nordeste 0 -- -- 94
2020-03-19 07:00:00 8.6 0 Calma 3 Sudeste 0 -- -- 95
2020-03-19 06:00:00 8.5 0 Calma 3 Sur 0 -- -- 94
2020-03-19 05:00:00 8 0 Calma 5 Nordeste 0 -- -- 94
2020-03-19 04:00:00 7.9 4 Nordeste 7 Nordeste 0 -- -- 94
2020-03-19 03:00:00 8.1 3 Nordeste 5 Nordeste 0 -- -- 94
2020-03-19 02:00:00 8.8 0 Calma 3 Este 0 -- -- 93
2020-03-19 01:00:00 9.5 2 Noroeste 4 Sudeste 0 -- -- 92
2020-03-19 00:00:00 10.1 0 Calma 5 Nordeste 0 -- -- 91
2020-03-18 23:00:00 10.4 3 Nordeste 6 Nordeste 0 -- -- 90
2020-03-18 22:00:00 11.3 0 Calma 2 Nordeste 0 -- -- 88
2020-03-18 21:00:00 12.5 0 Calma 5 Este 0 -- -- 85
2020-03-18 20:00:00 13.6 5 Nordeste 6 Nordeste 0 -- -- 80
2020-03-18 19:00:00 15.5 3 Sudoeste 5 Sudoeste 0 -- -- 68
2020-03-18 18:00:00 16.3 4 Sudoeste 8 Sudoeste 0 -- -- 65
2020-03-18 17:00:00 17 4 Sudoeste 13 Sudoeste 0 -- -- 61
2020-03-18 16:00:00 16.9 6 Sudoeste 11 Sudoeste 0 -- -- 60
2020-03-18 15:00:00 17.1 3 Sur 8 Noroeste 0 -- -- 57
2020-03-18 14:00:00 15.9 6 Noroeste 13 Oeste 0 -- -- 62
2020-03-18 13:00:00 15.4 3 Sudoeste 8 Sudoeste 0 -- -- 62
2020-03-18 12:00:00 14.1 3 Nordeste 11 Nordeste 0 -- -- 66
2020-03-18 11:00:00 12.8 3 Nordeste 11 Nordeste 0 -- -- 73
2020-03-18 10:00:00 10.6 6 Nordeste 11 Nordeste 0 -- -- 83
2020-03-18 09:00:00 8.9 5 Nordeste 9 Este 0 -- -- 93
2020-03-18 08:00:00 8.1 3 Este 4 Este 0 -- -- 93
2020-03-18 07:00:00 8.3 0 Calma 5 Nordeste 0 -- -- 91
2020-03-18 06:00:00 8.6 2 Este 9 Este 0 -- -- 90
2020-03-18 05:00:00 9 7 Este 14 Nordeste 0 -- -- 90
2020-03-18 04:00:00 8.7 9 Nordeste 13 Nordeste 0 -- -- 89
2020-03-18 03:00:00 9 7 Nordeste 14 Nordeste 0 -- -- 89
2020-03-18 02:00:00 9 9 Este 13 Este 0 -- -- 89
2020-03-18 01:00:00 9 8 Este 13 Nordeste 0 -- -- 88
2020-03-18 00:00:00 9.9 10 Nordeste 18 Nordeste 0 -- -- 86
2020-03-17 23:00:00 10.5 12 Nordeste 17 Nordeste 0 -- -- 85
2020-03-17 22:00:00 11.4 6 Nordeste 16 Nordeste 0 -- -- 83
2020-03-17 21:00:00 12.8 10 Nordeste 17 Este 0 -- -- 80
2020-03-17 20:00:00 13 9 Nordeste 18 Nordeste 0 -- -- 77
2020-03-17 19:00:00 14 12 Nordeste 33 Este 0 -- -- 71
2020-03-17 18:00:00 15.5 17 Nordeste 30 Este 0 -- -- 62
2020-03-17 17:00:00 16.1 21 Este 39 Este 0 -- -- 61
2020-03-17 16:00:00 17 24 Este 43 Sudeste 0 -- -- 59
2020-03-17 15:00:00 17.4 21 Sudeste 36 Este 0 -- -- 58
2020-03-17 14:00:00 16.2 22 Este 37 Este 0.2 -- -- 61
2020-03-17 13:00:00 15.6 17 Este 31 Nordeste 0 -- -- 64
2020-03-17 12:00:00 13.3 14 Nordeste 22 Nordeste 0 -- -- 76
2020-03-17 11:00:00 9.8 0 Calma 7 Sudeste 0 -- -- 90
2020-03-17 10:00:00 7.7 2 Oeste 4 Oeste 0 -- -- 91
2020-03-17 09:00:00 6.7 3 Este 6 Este 0 -- -- 94
2020-03-17 08:00:00 6.1 5 Este 10 Nordeste 0.2 -- -- 95
2020-03-17 07:00:00 5.9 5 Nordeste 11 Nordeste 0 -- -- 95
2020-03-17 06:00:00 5.7 5 Nordeste 15 Nordeste 0.2 -- -- 95
2020-03-17 05:00:00 5.5 10 Nordeste 22 Nordeste 0.6 -- -- 94
2020-03-17 04:00:00 5.3 16 Nordeste 29 Nordeste 0.6 -- -- 93
2020-03-17 03:00:00 5.3 16 Nordeste 32 Nordeste 0.2 -- -- 90
2020-03-17 02:00:00 5.6 20 Nordeste 32 Nordeste 0 -- -- 85
2020-03-17 01:00:00 5.9 21 Norte 36 Nordeste 0 -- -- 82
2020-03-17 00:00:00 5.5 21 Nordeste 29 Nordeste 0 -- -- 83
2020-03-16 23:00:00 6.5 15 Nordeste 23 Nordeste 0 -- -- 84
2020-03-16 22:00:00 5.8 8 Este 13 Nordeste 0 -- -- 88
2020-03-16 21:00:00 4.7 7 Nordeste 22 Nordeste 0 -- -- 89
2020-03-16 20:00:00 5.1 14 Nordeste 25 Nordeste 0 -- -- 85
2020-03-16 19:00:00 5.6 12 Nordeste 30 Nordeste 0.2 -- -- 85
2020-03-16 18:00:00 8.1 18 Nordeste 30 Nordeste 0 -- -- 70
2020-03-16 17:00:00 8 23 Este 37 Nordeste 0.2 -- -- 73
2020-03-16 16:00:00 7.3 20 Nordeste 38 Este 0 -- -- 78
2020-03-16 15:00:00 9 15 Nordeste 25 Nordeste 0 -- -- 71
2020-03-16 14:00:00 7.8 9 Sudeste 15 Sudeste 0 -- -- 79
2020-03-16 13:00:00 7.1 3 Nordeste 14 Nordeste 0 -- -- 82
2020-03-16 12:00:00 6.1 9 Nordeste 14 Norte 0 -- -- 87
2020-03-16 11:00:00 5.6 7 Norte 13 Sur 0.2 -- -- 84
2020-03-16 10:00:00 5.5 5 Sur 15 Sur 0 -- -- 81
2020-03-16 09:00:00 5.4 10 Sur 17 Sur 0 -- -- 83
2020-03-16 08:00:00 5.3 7 Sur 21 Sudoeste 0 -- -- 84
2020-03-16 07:00:00 6.3 6 Sur 18 Sur 0 -- -- 87
2020-03-16 06:00:00 6.5 8 Sur 21 Sudeste 0.6 -- -- 90
2020-03-16 05:00:00 7.2 8 Sur 19 Sur 2.2 -- -- 91
2020-03-16 04:00:00 8 6 Sudoeste 13 Sudoeste 2 -- -- 91
2020-03-16 03:00:00 8.3 8 Sur 19 Sudoeste 3.4 -- -- 90
2020-03-16 02:00:00 9 12 Sudoeste 23 Sudoeste 1.8 -- -- 87
2020-03-16 01:00:00 10.1 11 Sur 27 Sudoeste 1.8 -- -- 88
2020-03-16 00:00:00 10.8 12 Sur 31 Sur 1.2 -- -- 85
2020-03-15 23:00:00 11 13 Sudoeste 32 Sur 3.2 -- -- 84
2020-03-15 22:00:00 11.4 12 Sur 50 Sur 1.8 -- -- 83
2020-03-15 21:00:00 12 6 Sur 22 Sudoeste 3.6 -- -- 78
2020-03-15 20:00:00 15.2 21 Oeste 39 Noroeste 0 -- -- 57
2020-03-15 19:00:00 17.1 14 Sur 24 Sudoeste 0 -- -- 59
2020-03-15 18:00:00 18.9 13 Sudoeste 30 Sur 0 -- -- 52
2020-03-15 17:00:00 19 16 Sudoeste 33 Sudoeste 0 -- -- 51
2020-03-15 16:00:00 20.4 19 Sudoeste 34 Sudoeste 0 -- -- 46
2020-03-15 15:00:00 21.8 20 Sudoeste 32 Sudoeste 0 -- -- 42
2020-03-15 14:00:00 20.8 9 Sudoeste 24 Sudoeste 0 -- -- 49
2020-03-15 13:00:00 19.2 10 Sudoeste 19 Sudoeste 0 -- -- 54
2020-03-15 12:00:00 16.8 5 Oeste 10 Noroeste 0 -- -- 58
2020-03-15 11:00:00 14.3 3 Noroeste 15 Nordeste 0 -- -- 64
2020-03-15 10:00:00 12 9 Nordeste 14 Nordeste 0 -- -- 60
2020-03-15 09:00:00 8.6 10 Nordeste 16 Nordeste 0 -- -- 63
2020-03-15 08:00:00 6.7 5 Este 14 Nordeste 0 -- -- 69
2020-03-15 07:00:00 6.5 7 Nordeste 12 Nordeste 0 -- -- 68
2020-03-15 06:00:00 6.3 6 Nordeste 10 Nordeste 0 -- -- 67
2020-03-15 05:00:00 7 7 Este 11 Nordeste 0 -- -- 65
2020-03-15 04:00:00 7.5 9 Nordeste 12 Nordeste 0 -- -- 63
2020-03-15 03:00:00 8.3 8 Nordeste 16 Nordeste 0 -- -- 60
2020-03-15 02:00:00 9.5 11 Nordeste 17 Nordeste 0 -- -- 56
2020-03-15 01:00:00 9.4 9 Nordeste 13 Nordeste 0 -- -- 59
2020-03-15 00:00:00 9.3 7 Nordeste 10 Nordeste 0 -- -- 65
2020-03-14 23:00:00 11.1 6 Nordeste 14 Este 0 -- -- 62
2020-03-14 22:00:00 10.4 10 Nordeste 14 Nordeste 0 -- -- 66
2020-03-14 21:00:00 13.1 5 Nordeste 8 Nordeste 0 -- -- 56
2020-03-14 20:00:00 17.2 0 Calma 7 Sur 0 -- -- 48
2020-03-14 19:00:00 21.5 4 Oeste 10 Sudoeste 0 -- -- 37
2020-03-14 18:00:00 22.9 6 Sudoeste 14 Oeste 0 -- -- 34
2020-03-14 17:00:00 22.8 7 Oeste 14 Oeste 0 -- -- 36
2020-03-14 16:00:00 22.9 6 Oeste 15 Oeste 0 -- -- 38
2020-03-14 15:00:00 21.9 8 Nordeste 15 Noroeste 0 -- -- 42
2020-03-14 14:00:00 21.3 5 Este 15 Norte 0 -- -- 44
2020-03-14 13:00:00 20.1 9 Norte 17 Norte 0 -- -- 44
2020-03-14 12:00:00 17.9 5 Norte 13 Este 0 -- -- 53
2020-03-14 11:00:00 15.7 9 Este 19 Este 0 -- -- 59
2020-03-14 10:00:00 13.2 8 Nordeste 17 Nordeste 0 -- -- 67
2020-03-14 09:00:00 9.6 8 Nordeste 15 Nordeste 0 -- -- 79
2020-03-14 08:00:00 7.1 8 Nordeste 13 Nordeste 0 -- -- 87
2020-03-14 07:00:00 6.6 7 Este 12 Este 0 -- -- 88
2020-03-14 06:00:00 7.2 2 Este 11 Este 0 -- -- 84
2020-03-14 05:00:00 7.8 6 Este 11 Este 0 -- -- 85
2020-03-14 04:00:00 8.2 6 Este 9 Nordeste 0 -- -- 82
2020-03-14 03:00:00 9.7 5 Este 16 Este 0 -- -- 78
2020-03-14 02:00:00 10.5 8 Nordeste 14 Nordeste 0 -- -- 76
2020-03-14 01:00:00 11.4 9 Nordeste 18 Nordeste 0 -- -- 72
2020-03-14 00:00:00 12.8 11 Nordeste 19 Nordeste 0 -- -- 67
2020-03-13 23:00:00 14.4 12 Este 19 Nordeste 0 -- -- 64
2020-03-13 22:00:00 15.3 10 Nordeste 15 Nordeste 0 -- -- 63
2020-03-13 21:00:00 14.6 10 Nordeste 18 Nordeste 0 -- -- 60
2020-03-13 20:00:00 16.7 3 Este 10 Sudoeste 0 -- -- 52
2020-03-13 19:00:00 20.4 9 Sudoeste 19 Sudoeste 0 -- -- 43
2020-03-13 18:00:00 23.1 13 Sudoeste 28 Oeste 0 -- -- 37
2020-03-13 17:00:00 24.2 11 Sudoeste 21 Oeste 0 -- -- 39
2020-03-13 16:00:00 23.9 11 Oeste 35 Sur 0 -- -- 40
2020-03-13 15:00:00 24.1 7 Sur 19 Sudoeste 0 -- -- 40
2020-03-13 14:00:00 22.8 12 Oeste 22 Sudoeste 0 -- -- 44
2020-03-13 13:00:00 22 8 Este 18 Este 0 -- -- 47
2020-03-13 12:00:00 19.3 4 Nordeste 20 Nordeste 0 -- -- 55
2020-03-13 11:00:00 16.9 12 Nordeste 19 Este 0 -- -- 61
2020-03-13 10:00:00 15 14 Nordeste 23 Este 0 -- -- 68
2020-03-13 09:00:00 11.7 13 Nordeste 17 Nordeste 0 -- -- 80
2020-03-13 08:00:00 9 7 Este 16 Este 0 -- -- 85
2020-03-13 07:00:00 9.6 9 Este 19 Este 0 -- -- 83
2020-03-13 06:00:00 9.5 8 Nordeste 14 Nordeste 0 -- -- 82
2020-03-13 05:00:00 8.8 8 Este 14 Nordeste 0 -- -- 79
2020-03-13 04:00:00 8.8 6 Nordeste 11 Nordeste 0 -- -- 80
2020-03-13 03:00:00 9.3 10 Nordeste 14 Nordeste 0 -- -- 78
2020-03-13 02:00:00 9.7 9 Nordeste 11 Nordeste 0 -- -- 78
2020-03-13 01:00:00 10.4 8 Nordeste 10 Nordeste 0 -- -- 75
2020-03-13 00:00:00 11.8 9 Nordeste 11 Nordeste 0 -- -- 71
2020-03-12 23:00:00 13.4 2 Norte 6 Nordeste 0 -- -- 64
2020-03-12 22:00:00 15 0 Calma 10 Nordeste 0 -- -- 60
2020-03-12 21:00:00 16.8 0 Calma 2 Sur 0 -- -- 54
2020-03-12 20:00:00 18.7 0 Calma 6 Sudeste 0 -- -- 49
2020-03-12 19:00:00 22.3 0 Calma 11 Oeste 0 -- -- 41
2020-03-12 18:00:00 24.3 7 Oeste 12 Oeste 0 -- -- 34
2020-03-12 17:00:00 24.7 9 Oeste 16 Oeste 0 -- -- 35
2020-03-12 16:00:00 25.8 9 Oeste 18 Oeste 0 -- -- 32
2020-03-12 15:00:00 25.4 11 Oeste 22 Oeste 0 -- -- 41
2020-03-12 14:00:00 24.6 7 Oeste 12 Oeste 0 -- -- 42
2020-03-12 13:00:00 22.2 3 Norte 11 Este 0 -- -- 46
2020-03-12 12:00:00 19.2 7 Nordeste 13 Este 0 -- -- 55
2020-03-12 11:00:00 16.3 10 Nordeste 16 Nordeste 0 -- -- 63
2020-03-12 10:00:00 12.9 9 Este 19 Nordeste 0 -- -- 71
2020-03-12 09:00:00 10.7 12 Nordeste 18 Nordeste 0 -- -- 79
2020-03-12 08:00:00 7.9 12 Nordeste 19 Nordeste 0 -- -- 88
2020-03-12 07:00:00 7.6 7 Nordeste 11 Nordeste 0 -- -- 86
2020-03-12 06:00:00 7.7 7 Este 15 Este 0 -- -- 86
2020-03-12 05:00:00 7.8 9 Este 12 Nordeste 0 -- -- 87
2020-03-12 04:00:00 7.8 7 Nordeste 11 Nordeste 0 -- -- 85
2020-03-12 03:00:00 8.1 5 Este 9 Nordeste 0 -- -- 83
2020-03-12 02:00:00 9.7 6 Nordeste 10 Nordeste 0 -- -- 79
2020-03-12 01:00:00 11.3 9 Nordeste 14 Este 0 -- -- 76
2020-03-12 00:00:00 10.7 8 Nordeste 12 Nordeste 0 -- -- 75
2020-03-11 23:00:00 11.4 7 Nordeste 9 Nordeste 0 -- -- 71
2020-03-11 22:00:00 13.1 6 Nordeste 7 Nordeste 0 -- -- 64
2020-03-11 21:00:00 15.6 3 Nordeste 7 Nordeste 0 -- -- 59
2020-03-11 20:00:00 19.1 0 Calma 4 Sudeste 0 -- -- 50
2020-03-11 19:00:00 22.5 0 Calma 13 Sudoeste 0 -- -- 42
2020-03-11 18:00:00 24.6 8 Oeste 18 Sudoeste 0 -- -- 37
2020-03-11 17:00:00 25.7 7 Sudoeste 15 Oeste 0 -- -- 34
2020-03-11 16:00:00 25.6 9 Oeste 18 Oeste 0 -- -- 35
2020-03-11 15:00:00 25.7 7 Oeste 15 Sudoeste 0 -- -- 35
2020-03-11 14:00:00 24.2 8 Oeste 17 Oeste 0 -- -- 40
2020-03-11 13:00:00 22.1 5 Noroeste 10 Oeste 0 -- -- 45
2020-03-11 12:00:00 19.1 3 Norte 11 Este 0 -- -- 51
2020-03-11 11:00:00 16 6 Este 13 Este 0 -- -- 58
2020-03-11 10:00:00 12.4 8 Nordeste 14 Nordeste 0 -- -- 67
2020-03-11 09:00:00 8.6 9 Nordeste 15 Nordeste 0 -- -- 80
2020-03-11 08:00:00 5.1 7 Nordeste 12 Nordeste 0 -- -- 90
2020-03-11 07:00:00 4.3 6 Nordeste 9 Nordeste 0 -- -- 90
2020-03-11 06:00:00 4.1 5 Este 7 Este 0 -- -- 89
2020-03-11 05:00:00 4.7 4 Este 9 Nordeste 0 -- -- 87
2020-03-11 04:00:00 5.2 5 Nordeste 9 Nordeste 0 -- -- 85
2020-03-11 03:00:00 6 6 Nordeste 10 Nordeste 0 -- -- 81
2020-03-11 02:00:00 7.4 8 Este 11 Este 0 -- -- 80
2020-03-11 01:00:00 6.8 3 Este 9 Nordeste 0 -- -- 77
2020-03-11 00:00:00 8 8 Nordeste 9 Nordeste 0 -- -- 75
2020-03-10 23:00:00 9.5 2 Este 8 Nordeste 0 -- -- 68
2020-03-10 22:00:00 10.8 2 Nordeste 10 Nordeste 0 -- -- 64
2020-03-10 21:00:00 14.2 0 Calma 8 Sur 0 -- -- 55
2020-03-10 20:00:00 17 5 Sur 10 Sur 0 -- -- 48
2020-03-10 19:00:00 20.7 5 Sur 11 Sudoeste 0 -- -- 41
2020-03-10 18:00:00 22.4 9 Oeste 19 Oeste 0 -- -- 35
2020-03-10 17:00:00 22.7 12 Oeste 21 Sudoeste 0 -- -- 36
2020-03-10 16:00:00 22.5 10 Oeste 21 Oeste 0 -- -- 35
2020-03-10 15:00:00 21.8 10 Oeste 19 Oeste 0 -- -- 37
2020-03-10 14:00:00 20.3 13 Oeste 21 Oeste 0 -- -- 39
2020-03-10 13:00:00 18.1 8 Oeste 15 Oeste 0 -- -- 43
2020-03-10 12:00:00 15.6 6 Sudoeste 13 Sudoeste 0 -- -- 48
2020-03-10 11:00:00 12.9 3 Sur 6 Sur 0 -- -- 52
2020-03-10 10:00:00 9.6 2 Este 9 Este 0 -- -- 64
2020-03-10 09:00:00 6 6 Nordeste 9 Este 0 -- -- 76
2020-03-10 08:00:00 3.1 6 Nordeste 10 Nordeste 0 -- -- 85
2020-03-10 07:00:00 2.3 8 Nordeste 11 Nordeste 0 -- -- 84
2020-03-10 06:00:00 1.9 4 Nordeste 6 Nordeste 0 -- -- 82
2020-03-10 05:00:00 2 4 Nordeste 5 Nordeste 0 -- -- 82
2020-03-10 04:00:00 2.1 2 Norte 8 Este 0 -- -- 80
2020-03-10 03:00:00 2.3 2 Nordeste 4 Norte 0 -- -- 79
2020-03-10 02:00:00 3 0 Calma 6 Nordeste 0 -- -- 77
2020-03-10 01:00:00 4 4 Sudoeste 9 Nordeste 0 -- -- 73
2020-03-10 00:00:00 5.7 4 Nordeste 8 Nordeste 0 -- -- 66
2020-03-09 23:00:00 7.7 5 Nordeste 8 Nordeste 0 -- -- 59
2020-03-09 22:00:00 9.8 2 Nordeste 15 Norte 0 -- -- 53
2020-03-09 21:00:00 11.8 8 Norte 20 Norte 0 -- -- 49
2020-03-09 20:00:00 12.7 10 Norte 23 Noroeste 0 -- -- 47
2020-03-09 19:00:00 14.3 13 Norte 28 Norte 0 -- -- 44
2020-03-09 18:00:00 15.6 22 Norte 36 Norte 0 -- -- 38
2020-03-09 17:00:00 17 22 Norte 36 Norte 0 -- -- 32
2020-03-09 16:00:00 16.5 17 Norte 30 Norte 0 -- -- 35
2020-03-09 15:00:00 17.5 16 Norte 30 Noroeste 0 -- -- 30
2020-03-09 14:00:00 16.9 17 Norte 29 Norte 0 -- -- 35
2020-03-09 13:00:00 15.5 9 Norte 22 Nordeste 0 -- -- 41
2020-03-09 12:00:00 13.5 9 Nordeste 20 Norte 0 -- -- 50
2020-03-09 11:00:00 11.7 8 Norte 14 Norte 0 -- -- 58
2020-03-09 10:00:00 8.9 4 Nordeste 8 Nordeste 0 -- -- 70
2020-03-09 09:00:00 3.7 0 Calma 5 Noroeste 0 -- -- 95
2020-03-09 08:00:00 0.7 2 Nordeste 6 Nordeste 0 -- -- 93
2020-03-09 07:00:00 0.6 4 Este 8 Norte 0 -- -- 92
2020-03-09 06:00:00 0.5 3 Nordeste 6 Nordeste 0 -- -- 92
2020-03-09 05:00:00 1 4 Nordeste 10 Nordeste 0 -- -- 92
2020-03-09 04:00:00 0.7 0 Calma 5 Nordeste 0 -- -- 90
2020-03-09 03:00:00 1.4 0 Calma 5 Este 0 -- -- 88
2020-03-09 02:00:00 2.5 3 Nordeste 6 Nordeste 0 -- -- 86
2020-03-09 01:00:00 3.6 6 Nordeste 9 Nordeste 0 -- -- 86
2020-03-09 00:00:00 5.2 2 Norte 8 Este 0 -- -- 83